ORMM/BSR METAR and TAF weather

Enter ICAO airport designator
Station Type Date Time Source
ORMM METAR 2020/06/03 22:00 UTC NOAA

ORMM 032200Z 31006KT CAVOK 32/19 Q1004 NOSIG


Station Type Date Time Source
ORMM Decoded METAR 2020/06/03 22:00 UTC NOAA

Station name not available
Jun 03, 2020 - 06:00 PM EDT / 2020.06.03 2200 UTC
Wind: from the NW (310 degrees) at 7 MPH (6 KT):0
Visibility: greater than 7 mile(s):0
Temperature: 89 F (32 C)
Dew Point: 66 F (19 C)
Relative Humidity: 46%
Pressure (altimeter): 29.65 in. Hg (1004 hPa)
ob: ORMM 032200Z 31006KT CAVOK 32/19 Q1004 NOSIG
cycle: 22

Station Type Date Time Source
ORMM TAF 2020/06/03 18:48 UTC NOAA

TAF ORMM 031600Z 0318/0418 29010KT CAVOK
BECMG 0413/0415 34016KT

Example: see airport list